Time;durP1;ratioP1;P1;durP2;ratioP2;P2;SDS_P1;SDS_P2;PMS_P1;PMS_P2;Temp;Humidity;BMP_temperature;BMP_pressure;BME280_temperature;BME280_humidity;BME280_pressure;Samples;Min_cycle;Max_cycle;Signal;HPM_P1;HPM_P2
2021/04/05 00:02:10;;;;;;;13.17;11.27;;;;;;;;;;5063197;28;20191;-57
2021/04/05 00:04:36;;;;;;;12.80;11.37;;;;;;;;;;5063236;28;20577;-58
2021/04/05 00:07:02;;;;;;;15.73;11.87;;;;;;;;;;5066502;28;20188;-58
2021/04/05 00:09:28;;;;;;;14.40;11.33;;;;;;;;;;5044562;28;20195;-58
2021/04/05 00:11:54;;;;;;;13.57;11.10;;;;;;;;;;5061978;28;20180;-58
2021/04/05 00:14:20;;;;;;;12.60;10.83;;;;;;;;;;5069063;28;20544;-58
2021/04/05 00:16:47;;;;;;;11.80;10.43;;;;;;;;;;5067731;28;20206;-57
2021/04/05 00:19:13;;;;;;;12.00;10.80;;;;;;;;;;5057875;28;20184;-57
2021/04/05 00:21:39;;;;;;;13.33;11.93;;;;;;;;;;5069092;28;20627;-57
2021/04/05 00:24:05;;;;;;;11.30;10.13;;;;;;;;;;5063727;28;20180;-57
2021/04/05 00:26:31;;;;;;;12.43;10.47;;;;;;;;;;5041511;28;20540;-58
2021/04/05 00:28:57;;;;;;;12.73;11.13;;;;;;;;;;5036962;28;20550;-57
2021/04/05 00:31:23;;;;;;;13.00;10.60;;;;;;;;;;5061179;28;20192;-58
2021/04/05 00:33:49;;;;;;;12.93;10.40;;;;;;;;;;5035098;28;20184;-58
2021/04/05 00:36:15;;;;;;;15.27;12.13;;;;;;;;;;5062620;28;20635;-58
2021/04/05 00:38:41;;;;;;;13.80;10.47;;;;;;;;;;5069034;28;20208;-58
2021/04/05 00:41:09;;;;;;;11.33;10.17;;;;;;;;;;5064478;28;20208;-57
2021/04/05 00:43:36;;;;;;;12.03;9.90;;;;;;;;;;5068549;28;20187;-58
2021/04/05 00:46:02;;;;;;;13.30;11.27;;;;;;;;;;5062429;28;20181;-59
2021/04/05 00:48:29;;;;;;;14.53;11.13;;;;;;;;;;5044892;28;20208;-57
2021/04/05 00:50:55;;;;;;;11.40;9.30;;;;;;;;;;5061428;28;20197;-57
2021/04/05 00:53:42;;;;;;;14.47;11.37;;;;;;;;;;5069496;28;20613;-57
2021/04/05 00:56:08;;;;;;;11.50;10.30;;;;;;;;;;5048355;28;20176;-60
2021/04/05 00:58:34;;;;;;;12.73;10.87;;;;;;;;;;5059637;28;20216;-58
2021/04/05 01:01:02;;;;;;;13.43;10.60;;;;;;;;;;5066357;28;20203;-57
2021/04/05 01:03:29;;;;;;;11.93;9.93;;;;;;;;;;5048657;28;20184;-60
2021/04/05 01:06:01;;;;;;;14.27;10.50;;;;;;;;;;5052530;28;20173;-57
2021/04/05 01:08:27;;;;;;;12.43;11.07;;;;;;;;;;5053251;28;20168;-58
2021/04/05 01:10:53;;;;;;;12.50;10.63;;;;;;;;;;5040088;28;20686;-58
2021/04/05 01:13:19;;;;;;;16.33;10.93;;;;;;;;;;5050455;28;20224;-58
2021/04/05 01:15:45;;;;;;;11.50;10.20;;;;;;;;;;5035415;28;20189;-57
2021/04/05 01:18:12;;;;;;;13.77;10.90;;;;;;;;;;5050305;28;20208;-58
2021/04/05 01:20:39;;;;;;;13.40;10.60;;;;;;;;;;5063976;28;20184;-58
2021/04/05 01:23:05;;;;;;;13.03;9.93;;;;;;;;;;5069782;28;20173;-58
2021/04/05 01:25:31;;;;;;;13.38;11.73;;;;;;;;;;5058802;28;20426;-57
2021/04/05 01:27:57;;;;;;;13.23;11.40;;;;;;;;;;5069092;28;20176;-61
2021/04/05 01:30:50;;;;;;;12.57;10.47;;;;;;;;;;5060602;28;20263;-59
2021/04/05 01:33:22;;;;;;;13.70;10.77;;;;;;;;;;5052979;28;20205;-58
2021/04/05 01:35:49;;;;;;;12.83;10.43;;;;;;;;;;5052589;28;20181;-58
2021/04/05 01:38:23;;;;;;;13.40;10.60;;;;;;;;;;5049860;28;20711;-58
2021/04/05 01:40:52;;;;;;;12.27;10.17;;;;;;;;;;5035112;28;20758;-58
2021/04/05 01:43:18;;;;;;;12.53;9.87;;;;;;;;;;5051317;28;20173;-58
2021/04/05 01:45:44;;;;;;;11.93;9.87;;;;;;;;;;5067635;28;20184;-58
2021/04/05 01:48:10;;;;;;;12.90;10.13;;;;;;;;;;5051312;28;20212;-58
2021/04/05 01:50:37;;;;;;;11.27;10.07;;;;;;;;;;5034073;28;20522;-58
2021/04/05 01:53:05;;;;;;;12.13;10.27;;;;;;;;;;5053787;28;20193;-58
2021/04/05 01:55:32;;;;;;;12.23;10.17;;;;;;;;;;5059665;28;20185;-58
2021/04/05 01:57:58;;;;;;;10.73;9.63;;;;;;;;;;5030479;28;20209;-58
2021/04/05 02:00:26;;;;;;;12.70;10.27;;;;;;;;;;5040314;28;20635;-58
2021/04/05 02:02:54;;;;;;;13.30;10.40;;;;;;;;;;5072982;28;20176;-58
2021/04/05 02:05:21;;;;;;;13.80;10.03;;;;;;;;;;5068371;28;20741;-58
2021/04/05 02:07:47;;;;;;;12.93;9.50;;;;;;;;;;5055816;28;20192;-58
2021/04/05 02:10:17;;;;;;;14.67;10.87;;;;;;;;;;5043710;28;20661;-58
2021/04/05 02:12:44;;;;;;;13.77;10.07;;;;;;;;;;5072724;28;20185;-59
2021/04/05 02:15:11;;;;;;;11.67;10.17;;;;;;;;;;5063457;28;20177;-58
2021/04/05 02:17:37;;;;;;;15.00;10.50;;;;;;;;;;5035208;28;20208;-58
2021/04/05 02:20:10;;;;;;;11.10;9.63;;;;;;;;;;5039662;28;20231;-58
2021/04/05 02:22:40;;;;;;;11.43;9.10;;;;;;;;;;5072565;28;20180;-58
2021/04/05 02:25:07;;;;;;;12.13;9.03;;;;;;;;;;5068197;28;20191;-58
2021/04/05 02:27:33;;;;;;;11.17;9.33;;;;;;;;;;5072651;28;20606;-58
2021/04/05 02:29:59;;;;;;;12.30;9.57;;;;;;;;;;5047433;28;20185;-58
2021/04/05 02:32:25;;;;;;;12.37;9.27;;;;;;;;;;5052728;28;20185;-58
2021/04/05 02:34:52;;;;;;;12.23;9.23;;;;;;;;;;5045807;28;20181;-57
2021/04/05 02:37:18;;;;;;;11.30;9.23;;;;;;;;;;5037729;28;20236;-58
2021/04/05 02:39:44;;;;;;;13.60;9.70;;;;;;;;;;5070429;28;20179;-61
2021/04/05 02:42:10;;;;;;;12.87;9.43;;;;;;;;;;5051602;28;20218;-58
2021/04/05 02:44:36;;;;;;;12.50;9.17;;;;;;;;;;5064013;28;20177;-58
2021/04/05 02:47:02;;;;;;;14.67;9.93;;;;;;;;;;5060521;28;20207;-58
2021/04/05 02:49:29;;;;;;;11.77;9.27;;;;;;;;;;5063094;28;20737;-58
2021/04/05 02:51:55;;;;;;;13.30;9.27;;;;;;;;;;5066069;28;20589;-58
2021/04/05 02:54:21;;;;;;;11.90;9.33;;;;;;;;;;5056187;28;20177;-58
2021/04/05 02:56:48;;;;;;;12.67;9.80;;;;;;;;;;5051752;28;20240;-58
2021/04/05 02:59:17;;;;;;;12.93;9.77;;;;;;;;;;5052158;28;20180;-58
2021/04/05 03:01:44;;;;;;;13.03;10.00;;;;;;;;;;5054347;28;20486;-58
2021/04/05 03:04:11;;;;;;;15.77;10.87;;;;;;;;;;5065616;28;20259;-58
2021/04/05 03:06:37;;;;;;;14.10;11.17;;;;;;;;;;5053725;28;20180;-57
2021/04/05 03:09:05;;;;;;;14.93;10.50;;;;;;;;;;5053891;28;20184;-58
2021/04/05 03:11:32;;;;;;;15.43;10.97;;;;;;;;;;5033719;28;20778;-58
2021/04/05 03:13:58;;;;;;;14.97;10.67;;;;;;;;;;5054951;28;20181;-57
2021/04/05 03:16:25;;;;;;;15.40;10.90;;;;;;;;;;5060805;28;20192;-60
2021/04/05 03:18:52;;;;;;;13.77;10.70;;;;;;;;;;5057107;28;20188;-58
2021/04/05 03:21:19;;;;;;;16.70;10.70;;;;;;;;;;5042718;28;20258;-57
2021/04/05 03:23:45;;;;;;;15.30;11.43;;;;;;;;;;5056685;28;20207;-58
2021/04/05 03:26:12;;;;;;;15.70;11.63;;;;;;;;;;5063787;28;20177;-58
2021/04/05 03:28:38;;;;;;;18.70;11.57;;;;;;;;;;5055302;28;20176;-57
2021/04/05 03:31:21;;;;;;;14.33;11.07;;;;;;;;;;5056828;28;20942;-57
2021/04/05 03:33:56;;;;;;;15.47;10.97;;;;;;;;;;5051501;28;20267;-58
2021/04/05 03:36:28;;;;;;;16.00;11.70;;;;;;;;;;5053405;28;20194;-58
2021/04/05 03:38:56;;;;;;;15.07;11.70;;;;;;;;;;5071172;28;20245;-58
2021/04/05 03:41:29;;;;;;;19.90;12.77;;;;;;;;;;5069956;28;20216;-57
2021/04/05 03:44:01;;;;;;;19.77;13.17;;;;;;;;;;5035337;28;20185;-57
2021/04/05 03:46:30;;;;;;;16.77;11.43;;;;;;;;;;5064741;28;20204;-57
2021/04/05 03:49:01;;;;;;;13.97;10.77;;;;;;;;;;5066523;28;20180;-58
2021/04/05 03:51:33;;;;;;;15.30;10.17;;;;;;;;;;5052398;28;20173;-57
2021/04/05 03:54:04;;;;;;;15.53;10.93;;;;;;;;;;5065720;28;20173;-57
2021/04/05 03:56:52;;;;;;;13.77;10.47;;;;;;;;;;5064704;28;20215;-58
2021/04/05 03:59:29;;;;;;;16.83;11.30;;;;;;;;;;5065577;28;20180;-57
2021/04/05 04:02:01;;;;;;;15.37;10.73;;;;;;;;;;5055681;28;20255;-59
2021/04/05 04:04:39;;;;;;;15.83;11.43;;;;;;;;;;5043300;28;20634;-57
2021/04/05 04:07:14;;;;;;;13.77;9.70;;;;;;;;;;5033613;28;20185;-58
2021/04/05 04:09:41;;;;;;;14.00;9.80;;;;;;;;;;5063054;28;20184;-57
2021/04/05 04:12:08;;;;;;;15.87;10.07;;;;;;;;;;5057971;28;20212;-57
2021/04/05 04:14:36;;;;;;;13.20;9.73;;;;;;;;;;5050819;28;20586;-58
2021/04/05 04:17:02;;;;;;;14.23;11.13;;;;;;;;;;5051645;28;20232;-57
2021/04/05 04:19:29;;;;;;;17.23;10.33;;;;;;;;;;5058209;28;20181;-57
2021/04/05 04:21:56;;;;;;;12.10;9.40;;;;;;;;;;5053085;28;20253;-59
2021/04/05 04:24:22;;;;;;;13.63;10.60;;;;;;;;;;5057375;28;20264;-57
2021/04/05 04:26:48;;;;;;;14.97;10.50;;;;;;;;;;5048585;28;20539;-57
2021/04/05 04:29:18;;;;;;;15.10;10.03;;;;;;;;;;5051670;28;20188;-58
2021/04/05 04:31:44;;;;;;;13.20;9.43;;;;;;;;;;5056711;28;20177;-57
2021/04/05 04:34:13;;;;;;;14.30;10.23;;;;;;;;;;5058032;28;20191;-60
2021/04/05 04:36:39;;;;;;;14.40;9.33;;;;;;;;;;5067011;28;20196;-57
2021/04/05 04:39:06;;;;;;;16.93;10.77;;;;;;;;;;5056749;28;20173;-60
2021/04/05 04:41:32;;;;;;;12.90;11.33;;;;;;;;;;5051419;28;20228;-57
2021/04/05 04:44:02;;;;;;;16.27;11.77;;;;;;;;;;5050134;28;20177;-58
2021/04/05 04:46:28;;;;;;;14.83;11.00;;;;;;;;;;5063875;28;20183;-58
2021/04/05 04:48:58;;;;;;;15.27;10.37;;;;;;;;;;5051302;28;20188;-59
2021/04/05 04:51:24;;;;;;;12.90;9.93;;;;;;;;;;5059401;28;20204;-58
2021/04/05 04:53:50;;;;;;;12.57;10.07;;;;;;;;;;5053793;28;20233;-58
2021/04/05 04:56:16;;;;;;;15.40;10.33;;;;;;;;;;5063171;28;20239;-58
2021/04/05 04:58:46;;;;;;;18.73;11.37;;;;;;;;;;5051054;28;20211;-57
2021/04/05 05:01:12;;;;;;;17.00;10.67;;;;;;;;;;5069427;28;20514;-58
2021/04/05 05:03:47;;;;;;;14.43;11.27;;;;;;;;;;5065967;28;20177;-58
2021/04/05 05:06:14;;;;;;;17.37;11.07;;;;;;;;;;5067173;28;20172;-57
2021/04/05 05:08:41;;;;;;;14.90;10.03;;;;;;;;;;5049538;28;20169;-57
2021/04/05 05:11:07;;;;;;;14.53;9.50;;;;;;;;;;5050557;28;20176;-58
2021/04/05 05:13:33;;;;;;;15.57;11.40;;;;;;;;;;5047319;28;20192;-58
2021/04/05 05:15:59;;;;;;;14.90;11.07;;;;;;;;;;5068270;28;20173;-58
2021/04/05 05:18:26;;;;;;;16.83;12.47;;;;;;;;;;5039608;28;20223;-58
2021/04/05 05:20:52;;;;;;;18.63;11.20;;;;;;;;;;5046185;28;20188;-58
2021/04/05 05:23:18;;;;;;;14.60;10.77;;;;;;;;;;5051917;28;20188;-58
2021/04/05 05:25:46;;;;;;;15.77;11.47;;;;;;;;;;5057977;28;20177;-59
2021/04/05 05:28:13;;;;;;;17.37;12.43;;;;;;;;;;5050384;28;20180;-59
2021/04/05 05:30:41;;;;;;;18.57;11.27;;;;;;;;;;5066285;28;20629;-57
2021/04/05 05:33:08;;;;;;;14.60;11.17;;;;;;;;;;5032537;28;20194;-60
2021/04/05 05:35:34;;;;;;;16.30;11.43;;;;;;;;;;5070168;28;20172;-57
2021/04/05 05:38:01;;;;;;;17.40;11.40;;;;;;;;;;5037010;28;20204;-57
2021/04/05 05:40:27;;;;;;;15.30;11.13;;;;;;;;;;5070621;28;20195;-58
2021/04/05 05:43:09;;;;;;;18.20;11.30;;;;;;;;;;5043620;28;20663;-57
2021/04/05 05:45:41;;;;;;;13.90;10.80;;;;;;;;;;5066837;28;20264;-57
2021/04/05 05:48:26;;;;;;;16.93;11.87;;;;;;;;;;5039873;28;20195;-59
2021/04/05 05:50:55;;;;;;;12.93;9.80;;;;;;;;;;5063216;28;20273;-58
2021/04/05 05:53:40;;;;;;;16.37;10.83;;;;;;;;;;5037860;28;20176;-59
2021/04/05 05:56:35;;;;;;;16.30;11.40;;;;;;;;;;5069954;28;20226;-59
2021/04/05 05:59:14;;;;;;;13.13;9.80;;;;;;;;;;5047221;28;20201;-58
2021/04/05 06:02:00;;;;;;;12.57;9.93;;;;;;;;;;5056848;28;20184;-58
2021/04/05 06:04:45;;;;;;;16.37;10.03;;;;;;;;;;5014825;28;20205;-60
2021/04/05 06:07:23;;;;;;;16.57;10.87;;;;;;;;;;5073364;28;20180;-58
2021/04/05 06:10:14;;;;;;;13.27;10.17;;;;;;;;;;5045154;28;20199;-57
2021/04/05 06:12:49;;;;;;;12.60;10.03;;;;;;;;;;5072000;28;20172;-57
2021/04/05 06:15:21;;;;;;;18.00;10.57;;;;;;;;;;5065670;28;20188;-57
2021/04/05 06:17:58;;;;;;;17.47;10.53;;;;;;;;;;5077902;28;20207;-59
2021/04/05 06:20:30;;;;;;;15.43;10.33;;;;;;;;;;5072573;28;20251;-57
2021/04/05 06:22:59;;;;;;;16.47;11.60;;;;;;;;;;5062362;28;20185;-58
2021/04/05 06:25:31;;;;;;;16.10;11.20;;;;;;;;;;5061799;28;20185;-57
2021/04/05 06:28:00;;;;;;;16.10;9.53;;;;;;;;;;5053361;28;20227;-58
2021/04/05 06:30:49;;;;;;;13.90;10.93;;;;;;;;;;5040377;28;20177;-57
2021/04/05 06:33:30;;;;;;;12.00;10.40;;;;;;;;;;5035304;28;20181;-58
2021/04/05 06:36:01;;;;;;;13.87;10.53;;;;;;;;;;5071708;28;20180;-58
2021/04/05 06:38:39;;;;;;;13.60;9.63;;;;;;;;;;5068759;28;20205;-60
2021/04/05 06:41:20;;;;;;;12.50;10.37;;;;;;;;;;5059812;28;20244;-58
2021/04/05 06:43:56;;;;;;;16.83;10.53;;;;;;;;;;5067223;28;20607;-58
2021/04/05 06:46:44;;;;;;;15.77;10.83;;;;;;;;;;5056506;28;20522;-58
2021/04/05 06:49:13;;;;;;;16.97;11.13;;;;;;;;;;5061072;28;20192;-57
2021/04/05 06:51:58;;;;;;;16.17;11.43;;;;;;;;;;5061027;28;20264;-57
2021/04/05 06:54:29;;;;;;;18.40;12.20;;;;;;;;;;5060763;28;20187;-58
2021/04/05 06:57:02;;;;;;;15.73;10.60;;;;;;;;;;5035667;28;20223;-58
2021/04/05 06:59:28;;;;;;;14.17;10.63;;;;;;;;;;5040129;28;20570;-57
2021/04/05 07:01:57;;;;;;;15.97;10.80;;;;;;;;;;5061865;28;20183;-58
2021/04/05 07:04:45;;;;;;;15.93;11.43;;;;;;;;;;5058510;28;20181;-58
2021/04/05 07:07:16;;;;;;;14.47;12.77;;;;;;;;;;5072470;28;20177;-57
2021/04/05 07:09:55;;;;;;;18.57;12.83;;;;;;;;;;5061060;28;20532;-57
2021/04/05 07:12:41;;;;;;;18.07;12.63;;;;;;;;;;5039008;28;20199;-57
2021/04/05 07:15:10;;;;;;;17.73;12.07;;;;;;;;;;5055582;28;20538;-58
2021/04/05 07:17:44;;;;;;;14.43;10.90;;;;;;;;;;5035213;28;20213;-59
2021/04/05 07:20:10;;;;;;;16.23;12.13;;;;;;;;;;5066734;28;20176;-58
2021/04/05 07:22:54;;;;;;;20.03;13.70;;;;;;;;;;5052065;28;20203;-58
2021/04/05 07:25:20;;;;;;;19.10;12.83;;;;;;;;;;5065225;28;20254;-58
2021/04/05 07:28:05;;;;;;;19.10;12.43;;;;;;;;;;5052702;28;20191;-58
2021/04/05 07:30:46;;;;;;;17.00;13.43;;;;;;;;;;5069998;28;20577;-59
2021/04/05 07:33:23;;;;;;;18.43;12.27;;;;;;;;;;5053092;28;20176;-59
2021/04/05 07:36:09;;;;;;;18.73;13.13;;;;;;;;;;5059635;28;20536;-59
2021/04/05 07:38:44;;;;;;;15.23;12.20;;;;;;;;;;5036884;28;20207;-60
2021/04/05 07:41:13;;;;;;;16.00;12.27;;;;;;;;;;5061900;28;20219;-59
2021/04/05 07:43:39;;;;;;;15.67;11.87;;;;;;;;;;5036528;28;20200;-60
2021/04/05 07:46:10;;;;;;;17.47;11.07;;;;;;;;;;5033961;28;20677;-60
2021/04/05 07:48:39;;;;;;;13.30;10.30;;;;;;;;;;5034453;28;20184;-60
2021/04/05 07:51:14;;;;;;;9.07;7.83;;;;;;;;;;5059822;28;20259;-60
2021/04/05 07:54:02;;;;;;;10.23;7.57;;;;;;;;;;5062674;28;20542;-60
2021/04/05 07:56:29;;;;;;;10.07;6.67;;;;;;;;;;5054299;28;20226;-61
2021/04/05 07:59:03;;;;;;;9.43;6.43;;;;;;;;;;5058179;28;20180;-60
2021/04/05 08:01:29;;;;;;;7.83;5.70;;;;;;;;;;5061250;28;20542;-60
2021/04/05 08:04:03;;;;;;;6.13;4.43;;;;;;;;;;5058187;28;20191;-60
2021/04/05 08:06:34;;;;;;;7.73;4.70;;;;;;;;;;5042898;28;20275;-60
2021/04/05 08:09:05;;;;;;;6.17;3.90;;;;;;;;;;5036962;28;20176;-60
2021/04/05 08:11:50;;;;;;;7.17;4.07;;;;;;;;;;5054325;28;20178;-60
2021/04/05 08:14:35;;;;;;;4.60;4.07;;;;;;;;;;5063370;28;20169;-60
2021/04/05 08:17:05;;;;;;;5.47;3.93;;;;;;;;;;5033690;28;20562;-60
2021/04/05 08:19:39;;;;;;;4.53;3.93;;;;;;;;;;5062307;28;20254;-60
2021/04/05 08:22:15;;;;;;;5.47;3.30;;;;;;;;;;5055043;28;20213;-59
2021/04/05 08:24:50;;;;;;;4.70;3.13;;;;;;;;;;5063187;28;20173;-61
2021/04/05 08:27:21;;;;;;;3.40;2.60;;;;;;;;;;5043060;28;20590;-60
2021/04/05 08:29:51;;;;;;;4.83;2.47;;;;;;;;;;5041792;28;20188;-61
2021/04/05 08:32:21;;;;;;;3.53;2.27;;;;;;;;;;5054675;28;20193;-60
2021/04/05 08:34:54;;;;;;;2.90;1.80;;;;;;;;;;5039803;28;20654;-60
2021/04/05 08:37:38;;;;;;;3.30;2.00;;;;;;;;;;5057513;28;20197;-60
2021/04/05 08:40:09;;;;;;;3.43;2.13;;;;;;;;;;5059399;28;20180;-60
2021/04/05 08:42:45;;;;;;;2.00;1.30;;;;;;;;;;5069622;28;20758;-60
2021/04/05 08:45:16;;;;;;;2.37;1.40;;;;;;;;;;5061493;28;20585;-60
2021/04/05 08:47:44;;;;;;;3.13;1.73;;;;;;;;;;5070277;28;20179;-60
2021/04/05 08:50:12;;;;;;;2.17;1.40;;;;;;;;;;5060170;28;20231;-60
2021/04/05 08:52:48;;;;;;;12.83;2.83;;;;;;;;;;5063895;28;20247;-60
2021/04/05 08:55:21;;;;;;;8.43;2.50;;;;;;;;;;5037496;28;20223;-60
2021/04/05 08:57:59;;;;;;;17.47;2.70;;;;;;;;;;5032641;28;20200;-61
2021/04/05 09:00:26;;;;;;;9.60;3.87;;;;;;;;;;5059590;28;20183;-60
2021/04/05 09:02:54;;;;;;;8.03;1.80;;;;;;;;;;5052206;28;20175;-61
2021/04/05 09:05:23;;;;;;;7.07;1.40;;;;;;;;;;5053840;28;20538;-60
2021/04/05 09:07:55;;;;;;;6.20;1.40;;;;;;;;;;5061622;28;20186;-61
2021/04/05 09:10:29;;;;;;;5.80;1.33;;;;;;;;;;5052963;28;20681;-60
2021/04/05 09:12:57;;;;;;;2.37;1.03;;;;;;;;;;5051128;28;20225;-60
2021/04/05 09:15:31;;;;;;;2.87;1.20;;;;;;;;;;5064470;28;20177;-60
2021/04/05 09:18:16;;;;;;;2.27;1.30;;;;;;;;;;5070557;28;20199;-60
2021/04/05 09:20:45;;;;;;;2.60;1.40;;;;;;;;;;5069465;28;20184;-60
2021/04/05 09:23:20;;;;;;;2.23;1.30;;;;;;;;;;5041950;28;20181;-60
2021/04/05 09:25:50;;;;;;;3.23;1.40;;;;;;;;;;5065718;28;20180;-60
2021/04/05 09:28:35;;;;;;;2.20;1.00;;;;;;;;;;5050203;28;20176;-62
2021/04/05 09:31:19;;;;;;;2.23;1.67;;;;;;;;;;5063521;28;20292;-60
2021/04/05 09:33:45;;;;;;;4.67;1.90;;;;;;;;;;5041150;28;20186;-59
2021/04/05 09:36:29;;;;;;;5.73;1.90;;;;;;;;;;5056441;28;20545;-60
2021/04/05 09:39:11;;;;;;;3.70;1.30;;;;;;;;;;5062274;28;20631;-61
2021/04/05 09:41:55;;;;;;;2.87;1.70;;;;;;;;;;5049315;28;20222;-61
2021/04/05 09:44:27;;;;;;;4.07;1.77;;;;;;;;;;5051179;28;20173;-60
2021/04/05 09:47:02;;;;;;;3.50;1.67;;;;;;;;;;5053096;28;20255;-60
2021/04/05 09:49:44;;;;;;;3.47;1.50;;;;;;;;;;5068892;28;20227;-60
2021/04/05 09:52:24;;;;;;;3.13;1.47;;;;;;;;;;5064400;28;20558;-61
2021/04/05 09:54:55;;;;;;;2.50;1.40;;;;;;;;;;5061945;28;20173;-60
2021/04/05 09:57:26;;;;;;;6.77;2.27;;;;;;;;;;5049935;28;20278;-59
2021/04/05 09:59:54;;;;;;;5.13;2.20;;;;;;;;;;5046428;28;20180;-59
2021/04/05 10:02:49;;;;;;;7.27;1.90;;;;;;;;;;5065551;28;20207;-59
2021/04/05 10:05:17;;;;;;;4.83;2.17;;;;;;;;;;5035464;28;20207;-59
2021/04/05 10:07:46;;;;;;;4.97;2.07;;;;;;;;;;5052003;28;20188;-58
2021/04/05 10:10:15;;;;;;;7.20;1.90;;;;;;;;;;5047916;28;20192;-58
2021/04/05 10:12:43;;;;;;;6.23;2.40;;;;;;;;;;5067581;28;20246;-58
2021/04/05 10:15:15;;;;;;;7.47;2.37;;;;;;;;;;5067170;28;20651;-58
2021/04/05 10:17:49;;;;;;;9.80;2.60;;;;;;;;;;5049939;28;20312;-58
2021/04/05 10:20:16;;;;;;;6.77;2.13;;;;;;;;;;5044977;28;20184;-60
2021/04/05 10:22:43;;;;;;;8.23;2.33;;;;;;;;;;5072306;28;20176;-58
2021/04/05 10:25:11;;;;;;;5.93;2.03;;;;;;;;;;5052072;28;20206;-58
2021/04/05 10:27:37;;;;;;;10.10;3.00;;;;;;;;;;5071052;28;20222;-58
2021/04/05 10:30:05;;;;;;;9.03;2.00;;;;;;;;;;5050019;28;20180;-58
2021/04/05 10:32:31;;;;;;;5.27;2.00;;;;;;;;;;5052953;28;20176;-59
2021/04/05 10:34:58;;;;;;;6.03;2.10;;;;;;;;;;5052844;28;20971;-58
2021/04/05 10:37:34;;;;;;;5.87;3.03;;;;;;;;;;5071128;28;20454;-59
2021/04/05 10:40:01;;;;;;;7.27;1.50;;;;;;;;;;5068711;28;20192;-58
2021/04/05 10:42:46;;;;;;;4.23;1.43;;;;;;;;;;5071680;28;21422;-58
2021/04/05 10:45:26;;;;;;;6.30;1.83;;;;;;;;;;5052528;28;20475;-57
2021/04/05 10:48:03;;;;;;;4.90;1.97;;;;;;;;;;5069133;28;20426;-60
2021/04/05 10:50:30;;;;;;;4.17;2.00;;;;;;;;;;5066163;28;20547;-58
2021/04/05 10:53:02;;;;;;;3.53;1.90;;;;;;;;;;5037197;28;20180;-59
2021/04/05 10:55:29;;;;;;;3.77;1.70;;;;;;;;;;5068645;28;20403;-58
2021/04/05 10:57:57;;;;;;;0.87;0.73;;;;;;;;;;5070869;28;20465;-58
2021/04/05 11:00:25;;;;;;;3.67;1.50;;;;;;;;;;5048319;28;20481;-57
2021/04/05 11:02:51;;;;;;;2.00;1.40;;;;;;;;;;5066160;28;20434;-60
2021/04/05 11:05:19;;;;;;;1.83;1.13;;;;;;;;;;5064478;28;20423;-58
2021/04/05 11:07:47;;;;;;;4.33;1.17;;;;;;;;;;5066312;28;20208;-57
2021/04/05 11:10:20;;;;;;;3.30;1.10;;;;;;;;;;5069122;28;20501;-57
2021/04/05 11:12:50;;;;;;;1.73;0.97;;;;;;;;;;5073897;28;20403;-59
2021/04/05 11:15:19;;;;;;;3.23;1.13;;;;;;;;;;5071206;28;20826;-57
2021/04/05 11:17:47;;;;;;;2.70;0.97;;;;;;;;;;5072393;28;20199;-57
2021/04/05 11:20:15;;;;;;;4.50;1.60;;;;;;;;;;5070148;28;20181;-57
2021/04/05 11:22:41;;;;;;;3.10;2.17;;;;;;;;;;5064845;28;20442;-57
2021/04/05 11:25:11;;;;;;;3.70;1.50;;;;;;;;;;5043880;28;20529;-57
2021/04/05 11:27:40;;;;;;;3.67;2.00;;;;;;;;;;5052801;28;20403;-58
2021/04/05 11:30:07;;;;;;;2.70;1.50;;;;;;;;;;5055281;28;20777;-57
2021/04/05 11:32:35;;;;;;;5.83;2.00;;;;;;;;;;5045491;28;20426;-57
2021/04/05 11:35:04;;;;;;;4.77;1.90;;;;;;;;;;5070540;28;20419;-58
2021/04/05 11:37:37;;;;;;;2.30;1.33;;;;;;;;;;5060291;28;20204;-57
2021/04/05 11:40:14;;;;;;;3.60;1.70;;;;;;;;;;5044709;28;20757;-57
2021/04/05 11:42:46;;;;;;;2.57;1.63;;;;;;;;;;5072237;28;20466;-57
2021/04/05 11:45:14;;;;;;;2.03;1.10;;;;;;;;;;5070809;28;20191;-58
2021/04/05 11:47:44;;;;;;;5.00;1.47;;;;;;;;;;5053430;28;20419;-57
2021/04/05 11:50:14;;;;;;;4.03;1.30;;;;;;;;;;5051023;28;21275;-57
2021/04/05 11:52:54;;;;;;;3.70;1.30;;;;;;;;;;5054277;28;20460;-57
2021/04/05 11:55:22;;;;;;;1.30;1.00;;;;;;;;;;5068544;28;20427;-57
2021/04/05 11:58:08;;;;;;;2.90;1.10;;;;;;;;;;5065020;28;20454;-57
2021/04/05 12:00:55;;;;;;;3.47;1.30;;;;;;;;;;5066892;28;20169;-57
2021/04/05 12:03:21;;;;;;;2.10;1.23;;;;;;;;;;5070602;28;20431;-57
2021/04/05 12:05:58;;;;;;;2.07;1.13;;;;;;;;;;5060408;28;20449;-57
2021/04/05 12:08:35;;;;;;;4.55;2.10;;;;;;;;;;5065620;28;20437;-57
2021/04/05 12:11:04;;;;;;;3.50;1.80;;;;;;;;;;5058397;28;20543;-61
2021/04/05 12:13:41;;;;;;;3.00;1.43;;;;;;;;;;5041078;28;20454;-60
2021/04/05 12:16:08;;;;;;;3.17;1.70;;;;;;;;;;5040739;28;20973;-61
2021/04/05 12:18:34;;;;;;;5.67;1.60;;;;;;;;;;5060312;28;20591;-62
2021/04/05 12:21:13;;;;;;;1.53;0.90;;;;;;;;;;5042113;28;20831;-61
2021/04/05 12:23:40;;;;;;;3.23;1.30;;;;;;;;;;5049701;28;20416;-60
2021/04/05 12:26:07;;;;;;;3.33;1.73;;;;;;;;;;5045996;28;20172;-61
2021/04/05 12:28:37;;;;;;;4.70;1.97;;;;;;;;;;5044969;28;20426;-61
2021/04/05 12:31:07;;;;;;;6.30;1.53;;;;;;;;;;5056841;28;20427;-63
2021/04/05 12:33:34;;;;;;;3.57;1.40;;;;;;;;;;5047732;28;20177;-61
2021/04/05 12:36:01;;;;;;;2.30;1.33;;;;;;;;;;5044270;28;20204;-61
2021/04/05 12:38:32;;;;;;;1.80;1.40;;;;;;;;;;5064030;28;21029;-61
2021/04/05 12:40:59;;;;;;;5.00;1.70;;;;;;;;;;5056595;28;21700;-62
2021/04/05 12:43:26;;;;;;;3.67;1.73;;;;;;;;;;5038256;28;20195;-61
2021/04/05 12:45:53;;;;;;;2.30;1.10;;;;;;;;;;5067004;28;20437;-60
2021/04/05 12:48:23;;;;;;;3.20;1.60;;;;;;;;;;5069055;28;20191;-62
2021/04/05 12:50:53;;;;;;;3.83;1.53;;;;;;;;;;5051240;28;20933;-61
2021/04/05 12:53:23;;;;;;;2.27;1.30;;;;;;;;;;5067494;28;20169;-61
2021/04/05 12:55:49;;;;;;;4.60;1.53;;;;;;;;;;5068391;28;20783;-63
2021/04/05 12:58:15;;;;;;;4.90;1.63;;;;;;;;;;5066386;28;20219;-61
2021/04/05 13:00:43;;;;;;;2.63;1.33;;;;;;;;;;5065060;28;20459;-61
2021/04/05 13:03:17;;;;;;;3.27;1.43;;;;;;;;;;5064944;28;20635;-63
2021/04/05 13:05:45;;;;;;;2.60;1.30;;;;;;;;;;5069039;28;20156;-61
2021/04/05 13:08:18;;;;;;;2.87;1.57;;;;;;;;;;5048409;28;20184;-62
2021/04/05 13:11:04;;;;;;;2.70;1.40;;;;;;;;;;5067619;28;20204;-60
2021/04/05 13:13:32;;;;;;;4.87;1.20;;;;;;;;;;5045999;28;20202;-61
2021/04/05 13:16:00;;;;;;;2.47;1.40;;;;;;;;;;5065816;28;20192;-61
2021/04/05 13:18:29;;;;;;;1.83;1.57;;;;;;;;;;5049518;28;20621;-60
2021/04/05 13:20:57;;;;;;;3.67;1.37;;;;;;;;;;5064679;28;20223;-60
2021/04/05 13:23:25;;;;;;;4.03;1.60;;;;;;;;;;5064970;28;20271;-61
2021/04/05 13:26:02;;;;;;;1.63;1.20;;;;;;;;;;5065360;28;20223;-61
2021/04/05 13:28:29;;;;;;;4.33;1.23;;;;;;;;;;5060104;28;20180;-61
2021/04/05 13:31:06;;;;;;;2.67;1.37;;;;;;;;;;5045765;28;20234;-63
2021/04/05 13:33:33;;;;;;;9.53;1.60;;;;;;;;;;5035806;28;20188;-60
2021/04/05 13:36:04;;;;;;;4.97;1.70;;;;;;;;;;5050202;28;20188;-61
2021/04/05 13:38:30;;;;;;;4.30;1.10;;;;;;;;;;5046690;28;20204;-61
2021/04/05 13:41:03;;;;;;;6.23;2.23;;;;;;;;;;5060805;28;20173;-61
2021/04/05 13:43:29;;;;;;;6.20;1.97;;;;;;;;;;5068691;28;20192;-61
2021/04/05 13:45:56;;;;;;;7.97;1.50;;;;;;;;;;5070531;28;20769;-61
2021/04/05 13:48:26;;;;;;;4.53;1.70;;;;;;;;;;5045084;28;20200;-61
2021/04/05 13:50:56;;;;;;;3.53;1.30;;;;;;;;;;5066694;28;20282;-61
2021/04/05 13:53:33;;;;;;;6.37;2.33;;;;;;;;;;5070064;28;20418;-61
2021/04/05 13:55:59;;;;;;;3.63;1.50;;;;;;;;;;5039988;28;20215;-61
2021/04/05 13:58:27;;;;;;;2.83;1.10;;;;;;;;;;5055708;28;20204;-61
2021/04/05 14:00:54;;;;;;;5.30;1.37;;;;;;;;;;5060447;28;20644;-63
2021/04/05 14:03:22;;;;;;;3.43;1.10;;;;;;;;;;5038411;28;20181;-61
2021/04/05 14:05:52;;;;;;;4.77;1.73;;;;;;;;;;5041083;28;20595;-61
2021/04/05 14:08:23;;;;;;;2.57;0.70;;;;;;;;;;5041627;28;20189;-63
2021/04/05 14:11:09;;;;;;;1.83;1.30;;;;;;;;;;5051272;28;20235;-62
2021/04/05 14:13:36;;;;;;;3.47;1.10;;;;;;;;;;5049492;28;20182;-61
2021/04/05 14:16:11;;;;;;;3.93;1.40;;;;;;;;;;5053755;28;20231;-62
2021/04/05 14:18:40;;;;;;;1.80;1.13;;;;;;;;;;5056138;28;21083;-62
2021/04/05 14:21:07;;;;;;;2.17;1.17;;;;;;;;;;5057770;28;20569;-61
2021/04/05 14:23:37;;;;;;;4.83;1.30;;;;;;;;;;5062545;28;20203;-62
2021/04/05 14:26:11;;;;;;;3.17;1.13;;;;;;;;;;5057644;28;20174;-61
2021/04/05 14:28:52;;;;;;;5.43;1.40;;;;;;;;;;5062313;28;20177;-61
2021/04/05 14:31:24;;;;;;;2.80;1.30;;;;;;;;;;5057744;28;20439;-63
2021/04/05 14:33:58;;;;;;;3.93;1.30;;;;;;;;;;5067602;28;20187;-61
2021/04/05 14:36:26;;;;;;;2.60;1.67;;;;;;;;;;5050424;28;20244;-61
2021/04/05 14:39:12;;;;;;;2.53;1.50;;;;;;;;;;5052270;28;20200;-62
2021/04/05 14:41:42;;;;;;;3.20;1.30;;;;;;;;;;5069908;28;20231;-61
2021/04/05 14:44:10;;;;;;;1.50;0.97;;;;;;;;;;5052696;28;20475;-61
2021/04/05 14:46:39;;;;;;;3.43;1.27;;;;;;;;;;5068571;28;20206;-61
2021/04/05 14:49:05;;;;;;;5.43;1.20;;;;;;;;;;5067826;28;20230;-61
2021/04/05 14:51:32;;;;;;;5.10;1.57;;;;;;;;;;5070960;28;20172;-61
2021/04/05 14:54:01;;;;;;;3.90;1.30;;;;;;;;;;5050832;28;20696;-62